sensor_id;sensor_type;location;lat;lon;timestamp;P1;durP1;ratioP1;P2;durP2;ratioP2
30743;SDS011;17486;46.738;7.622;2022-07-05T00:02:10;2.95;;;2.65;;
30743;SDS011;17486;46.738;7.622;2022-07-05T00:04:35;5.70;;;2.80;;
30743;SDS011;17486;46.738;7.622;2022-07-05T00:07:00;2.58;;;2.30;;
30743;SDS011;17486;46.738;7.622;2022-07-05T00:09:54;3.03;;;2.70;;
30743;SDS011;17486;46.738;7.622;2022-07-05T00:12:25;3.47;;;2.50;;
30743;SDS011;17486;46.738;7.622;2022-07-05T00:14:53;4.95;;;2.42;;
30743;SDS011;17486;46.738;7.622;2022-07-05T00:17:19;29.83;;;23.30;;
30743;SDS011;17486;46.738;7.622;2022-07-05T00:19:45;49.92;;;38.53;;
30743;SDS011;17486;46.738;7.622;2022-07-05T00:22:11;26.52;;;22.38;;
30743;SDS011;17486;46.738;7.622;2022-07-05T00:24:36;7.07;;;6.18;;
30743;SDS011;17486;46.738;7.622;2022-07-05T00:27:02;4.53;;;3.47;;
30743;SDS011;17486;46.738;7.622;2022-07-05T00:29:27;5.50;;;2.90;;
30743;SDS011;17486;46.738;7.622;2022-07-05T00:31:53;6.05;;;3.03;;
30743;SDS011;17486;46.738;7.622;2022-07-05T00:34:19;5.95;;;2.63;;
30743;SDS011;17486;46.738;7.622;2022-07-05T00:36:44;4.03;;;2.85;;
30743;SDS011;17486;46.738;7.622;2022-07-05T00:39:09;4.68;;;3.30;;
30743;SDS011;17486;46.738;7.622;2022-07-05T00:41:35;6.05;;;3.40;;
30743;SDS011;17486;46.738;7.622;2022-07-05T00:44:04;6.25;;;3.28;;
30743;SDS011;17486;46.738;7.622;2022-07-05T00:46:32;5.43;;;3.03;;
30743;SDS011;17486;46.738;7.622;2022-07-05T00:48:59;5.75;;;3.58;;
30743;SDS011;17486;46.738;7.622;2022-07-05T00:51:26;5.10;;;3.70;;
30743;SDS011;17486;46.738;7.622;2022-07-05T00:53:55;4.70;;;3.63;;
30743;SDS011;17486;46.738;7.622;2022-07-05T00:56:20;6.97;;;4.07;;
30743;SDS011;17486;46.738;7.622;2022-07-05T00:58:49;4.38;;;3.60;;
30743;SDS011;17486;46.738;7.622;2022-07-05T01:01:15;4.88;;;3.78;;
30743;SDS011;17486;46.738;7.622;2022-07-05T01:03:42;6.72;;;3.97;;
30743;SDS011;17486;46.738;7.622;2022-07-05T01:06:09;7.80;;;3.80;;
30743;SDS011;17486;46.738;7.622;2022-07-05T01:08:40;5.13;;;3.88;;
30743;SDS011;17486;46.738;7.622;2022-07-05T01:11:08;6.88;;;4.28;;
30743;SDS011;17486;46.738;7.622;2022-07-05T01:13:36;4.38;;;3.90;;
30743;SDS011;17486;46.738;7.622;2022-07-05T01:16:03;4.95;;;3.78;;
30743;SDS011;17486;46.738;7.622;2022-07-05T01:18:29;6.53;;;3.92;;
30743;SDS011;17486;46.738;7.622;2022-07-05T01:20:57;5.68;;;4.18;;
30743;SDS011;17486;46.738;7.622;2022-07-05T01:23:31;4.40;;;3.80;;
30743;SDS011;17486;46.738;7.622;2022-07-05T01:25:59;6.50;;;4.05;;
30743;SDS011;17486;46.738;7.622;2022-07-05T01:28:29;6.03;;;4.00;;
30743;SDS011;17486;46.738;7.622;2022-07-05T01:30:55;5.80;;;3.88;;
30743;SDS011;17486;46.738;7.622;2022-07-05T01:33:27;5.40;;;3.70;;
30743;SDS011;17486;46.738;7.622;2022-07-05T01:35:53;4.85;;;4.35;;
30743;SDS011;17486;46.738;7.622;2022-07-05T01:38:19;4.65;;;4.15;;
30743;SDS011;17486;46.738;7.622;2022-07-05T01:40:45;5.03;;;3.90;;
30743;SDS011;17486;46.738;7.622;2022-07-05T01:43:10;4.35;;;3.80;;
30743;SDS011;17486;46.738;7.622;2022-07-05T01:45:37;4.43;;;3.72;;
30743;SDS011;17486;46.738;7.622;2022-07-05T01:48:07;4.03;;;3.25;;
30743;SDS011;17486;46.738;7.622;2022-07-05T01:50:36;3.67;;;3.38;;
30743;SDS011;17486;46.738;7.622;2022-07-05T01:53:04;4.40;;;3.70;;
30743;SDS011;17486;46.738;7.622;2022-07-05T01:55:33;4.18;;;3.00;;
30743;SDS011;17486;46.738;7.622;2022-07-05T01:57:59;3.75;;;3.10;;
30743;SDS011;17486;46.738;7.622;2022-07-05T02:00:25;5.25;;;2.78;;
30743;SDS011;17486;46.738;7.622;2022-07-05T02:02:50;3.90;;;2.60;;
30743;SDS011;17486;46.738;7.622;2022-07-05T02:05:16;5.88;;;2.85;;
30743;SDS011;17486;46.738;7.622;2022-07-05T02:07:48;3.28;;;2.50;;
30743;SDS011;17486;46.738;7.622;2022-07-05T02:10:15;4.05;;;2.53;;
30743;SDS011;17486;46.738;7.622;2022-07-05T02:12:40;5.00;;;3.00;;
30743;SDS011;17486;46.738;7.622;2022-07-05T02:15:06;3.70;;;2.75;;
30743;SDS011;17486;46.738;7.622;2022-07-05T02:17:32;3.83;;;2.50;;
30743;SDS011;17486;46.738;7.622;2022-07-05T02:19:58;3.17;;;2.83;;
30743;SDS011;17486;46.738;7.622;2022-07-05T02:22:23;6.13;;;3.10;;
30743;SDS011;17486;46.738;7.622;2022-07-05T02:24:49;4.40;;;2.63;;
30743;SDS011;17486;46.738;7.622;2022-07-05T02:27:14;4.43;;;2.90;;
30743;SDS011;17486;46.738;7.622;2022-07-05T02:29:40;6.32;;;3.30;;
30743;SDS011;17486;46.738;7.622;2022-07-05T02:32:05;4.68;;;2.53;;
30743;SDS011;17486;46.738;7.622;2022-07-05T02:34:31;8.00;;;2.70;;
30743;SDS011;17486;46.738;7.622;2022-07-05T02:36:56;3.83;;;3.42;;
30743;SDS011;17486;46.738;7.622;2022-07-05T02:39:21;3.53;;;2.92;;
30743;SDS011;17486;46.738;7.622;2022-07-05T02:41:47;3.97;;;2.95;;
30743;SDS011;17486;46.738;7.622;2022-07-05T02:44:12;5.10;;;3.42;;
30743;SDS011;17486;46.738;7.622;2022-07-05T02:46:38;5.57;;;3.00;;
30743;SDS011;17486;46.738;7.622;2022-07-05T02:49:03;3.58;;;2.97;;
30743;SDS011;17486;46.738;7.622;2022-07-05T02:51:29;4.50;;;3.20;;
30743;SDS011;17486;46.738;7.622;2022-07-05T02:53:55;4.63;;;3.10;;
30743;SDS011;17486;46.738;7.622;2022-07-05T02:56:20;4.10;;;3.00;;
30743;SDS011;17486;46.738;7.622;2022-07-05T02:58:46;4.30;;;2.60;;
30743;SDS011;17486;46.738;7.622;2022-07-05T03:01:11;4.38;;;2.45;;
30743;SDS011;17486;46.738;7.622;2022-07-05T03:03:36;4.38;;;2.70;;
30743;SDS011;17486;46.738;7.622;2022-07-05T03:06:02;7.90;;;3.05;;
30743;SDS011;17486;46.738;7.622;2022-07-05T03:08:27;3.33;;;2.38;;
30743;SDS011;17486;46.738;7.622;2022-07-05T03:10:53;3.92;;;2.40;;
30743;SDS011;17486;46.738;7.622;2022-07-05T03:13:18;4.15;;;2.35;;
30743;SDS011;17486;46.738;7.622;2022-07-05T03:15:44;4.00;;;2.72;;
30743;SDS011;17486;46.738;7.622;2022-07-05T03:18:09;4.22;;;2.72;;
30743;SDS011;17486;46.738;7.622;2022-07-05T03:20:34;4.40;;;2.50;;
30743;SDS011;17486;46.738;7.622;2022-07-05T03:23:00;2.53;;;2.10;;
30743;SDS011;17486;46.738;7.622;2022-07-05T03:25:25;4.65;;;2.13;;
30743;SDS011;17486;46.738;7.622;2022-07-05T03:27:51;2.58;;;2.38;;
30743;SDS011;17486;46.738;7.622;2022-07-05T03:30:16;2.80;;;2.30;;
30743;SDS011;17486;46.738;7.622;2022-07-05T03:32:42;2.92;;;2.28;;
30743;SDS011;17486;46.738;7.622;2022-07-05T03:35:07;3.35;;;2.50;;
30743;SDS011;17486;46.738;7.622;2022-07-05T03:37:33;4.00;;;2.53;;
30743;SDS011;17486;46.738;7.622;2022-07-05T03:39:58;2.88;;;2.40;;
30743;SDS011;17486;46.738;7.622;2022-07-05T03:42:24;3.00;;;2.70;;
30743;SDS011;17486;46.738;7.622;2022-07-05T03:44:49;7.10;;;2.90;;
30743;SDS011;17486;46.738;7.622;2022-07-05T03:47:14;3.30;;;2.28;;
30743;SDS011;17486;46.738;7.622;2022-07-05T03:49:40;3.90;;;2.58;;
30743;SDS011;17486;46.738;7.622;2022-07-05T03:52:05;4.03;;;2.80;;
30743;SDS011;17486;46.738;7.622;2022-07-05T03:54:31;3.78;;;2.53;;
30743;SDS011;17486;46.738;7.622;2022-07-05T03:56:56;3.88;;;2.80;;
30743;SDS011;17486;46.738;7.622;2022-07-05T03:59:21;2.75;;;2.35;;
30743;SDS011;17486;46.738;7.622;2022-07-05T04:01:47;3.72;;;2.92;;
30743;SDS011;17486;46.738;7.622;2022-07-05T04:04:12;5.95;;;3.30;;
30743;SDS011;17486;46.738;7.622;2022-07-05T04:06:38;3.60;;;2.92;;
30743;SDS011;17486;46.738;7.622;2022-07-05T04:09:03;5.00;;;2.67;;
30743;SDS011;17486;46.738;7.622;2022-07-05T04:11:29;3.10;;;2.60;;
30743;SDS011;17486;46.738;7.622;2022-07-05T04:13:54;4.00;;;2.80;;
30743;SDS011;17486;46.738;7.622;2022-07-05T04:16:19;3.33;;;2.80;;
30743;SDS011;17486;46.738;7.622;2022-07-05T04:18:45;4.88;;;2.92;;
30743;SDS011;17486;46.738;7.622;2022-07-05T04:21:10;5.43;;;2.85;;
30743;SDS011;17486;46.738;7.622;2022-07-05T04:23:36;3.63;;;2.95;;
30743;SDS011;17486;46.738;7.622;2022-07-05T04:26:01;3.47;;;2.95;;
30743;SDS011;17486;46.738;7.622;2022-07-05T04:28:27;4.82;;;3.28;;
30743;SDS011;17486;46.738;7.622;2022-07-05T04:30:55;3.95;;;3.10;;
30743;SDS011;17486;46.738;7.622;2022-07-05T04:33:21;6.80;;;3.50;;
30743;SDS011;17486;46.738;7.622;2022-07-05T04:35:46;4.68;;;3.05;;
30743;SDS011;17486;46.738;7.622;2022-07-05T04:38:12;3.75;;;3.05;;
30743;SDS011;17486;46.738;7.622;2022-07-05T04:40:37;3.72;;;3.20;;
30743;SDS011;17486;46.738;7.622;2022-07-05T04:43:03;4.82;;;3.15;;
30743;SDS011;17486;46.738;7.622;2022-07-05T04:45:29;3.65;;;3.00;;
30743;SDS011;17486;46.738;7.622;2022-07-05T04:47:54;5.35;;;2.90;;
30743;SDS011;17486;46.738;7.622;2022-07-05T04:50:20;3.85;;;2.85;;
30743;SDS011;17486;46.738;7.622;2022-07-05T04:52:46;5.15;;;3.08;;
30743;SDS011;17486;46.738;7.622;2022-07-05T04:55:13;3.47;;;3.05;;
30743;SDS011;17486;46.738;7.622;2022-07-05T04:57:39;4.63;;;3.10;;
30743;SDS011;17486;46.738;7.622;2022-07-05T05:00:07;4.72;;;3.20;;
30743;SDS011;17486;46.738;7.622;2022-07-05T05:02:35;5.10;;;3.53;;
30743;SDS011;17486;46.738;7.622;2022-07-05T05:05:01;4.47;;;3.08;;
30743;SDS011;17486;46.738;7.622;2022-07-05T05:07:27;3.88;;;3.03;;
30743;SDS011;17486;46.738;7.622;2022-07-05T05:09:53;4.70;;;3.13;;
30743;SDS011;17486;46.738;7.622;2022-07-05T05:12:18;4.15;;;3.35;;
30743;SDS011;17486;46.738;7.622;2022-07-05T05:14:43;4.07;;;3.35;;
30743;SDS011;17486;46.738;7.622;2022-07-05T05:17:09;6.18;;;3.72;;
30743;SDS011;17486;46.738;7.622;2022-07-05T05:19:35;4.82;;;3.38;;
30743;SDS011;17486;46.738;7.622;2022-07-05T05:22:00;3.95;;;3.53;;
30743;SDS011;17486;46.738;7.622;2022-07-05T05:24:25;3.80;;;3.40;;
30743;SDS011;17486;46.738;7.622;2022-07-05T05:26:51;3.47;;;3.17;;
30743;SDS011;17486;46.738;7.622;2022-07-05T05:29:17;4.63;;;3.33;;
30743;SDS011;17486;46.738;7.622;2022-07-05T05:31:43;3.50;;;2.97;;
30743;SDS011;17486;46.738;7.622;2022-07-05T05:34:08;4.80;;;3.40;;
30743;SDS011;17486;46.738;7.622;2022-07-05T05:36:34;5.45;;;3.75;;
30743;SDS011;17486;46.738;7.622;2022-07-05T05:38:59;6.68;;;3.83;;
30743;SDS011;17486;46.738;7.622;2022-07-05T05:41:25;6.03;;;3.70;;
30743;SDS011;17486;46.738;7.622;2022-07-05T05:43:50;3.75;;;3.40;;
30743;SDS011;17486;46.738;7.622;2022-07-05T05:46:15;3.33;;;2.83;;
30743;SDS011;17486;46.738;7.622;2022-07-05T05:48:41;4.32;;;3.05;;
30743;SDS011;17486;46.738;7.622;2022-07-05T05:51:06;5.25;;;2.88;;
30743;SDS011;17486;46.738;7.622;2022-07-05T05:53:31;4.75;;;3.33;;
30743;SDS011;17486;46.738;7.622;2022-07-05T05:55:57;4.65;;;2.90;;
30743;SDS011;17486;46.738;7.622;2022-07-05T05:58:22;4.78;;;3.50;;
30743;SDS011;17486;46.738;7.622;2022-07-05T06:00:51;3.30;;;3.00;;
30743;SDS011;17486;46.738;7.622;2022-07-05T06:03:18;3.10;;;2.80;;
30743;SDS011;17486;46.738;7.622;2022-07-05T06:05:44;4.25;;;3.20;;
30743;SDS011;17486;46.738;7.622;2022-07-05T06:08:10;3.08;;;2.58;;
30743;SDS011;17486;46.738;7.622;2022-07-05T06:10:36;3.88;;;2.80;;
30743;SDS011;17486;46.738;7.622;2022-07-05T06:13:03;2.75;;;2.55;;
30743;SDS011;17486;46.738;7.622;2022-07-05T06:15:30;2.85;;;2.65;;
30743;SDS011;17486;46.738;7.622;2022-07-05T06:17:55;5.78;;;2.80;;
30743;SDS011;17486;46.738;7.622;2022-07-05T06:20:22;3.47;;;2.70;;
30743;SDS011;17486;46.738;7.622;2022-07-05T06:22:49;4.00;;;2.83;;
30743;SDS011;17486;46.738;7.622;2022-07-05T06:25:15;3.40;;;3.10;;
30743;SDS011;17486;46.738;7.622;2022-07-05T06:27:41;3.00;;;2.70;;
30743;SDS011;17486;46.738;7.622;2022-07-05T06:30:08;3.28;;;2.92;;
30743;SDS011;17486;46.738;7.622;2022-07-05T06:32:34;2.97;;;2.75;;
30743;SDS011;17486;46.738;7.622;2022-07-05T06:35:00;8.15;;;3.35;;
30743;SDS011;17486;46.738;7.622;2022-07-05T06:37:26;3.83;;;3.33;;
30743;SDS011;17486;46.738;7.622;2022-07-05T06:39:51;3.90;;;2.83;;
30743;SDS011;17486;46.738;7.622;2022-07-05T06:42:18;4.75;;;3.15;;
30743;SDS011;17486;46.738;7.622;2022-07-05T06:44:43;3.63;;;3.17;;
30743;SDS011;17486;46.738;7.622;2022-07-05T06:47:09;5.47;;;3.35;;
30743;SDS011;17486;46.738;7.622;2022-07-05T06:49:35;3.60;;;3.28;;
30743;SDS011;17486;46.738;7.622;2022-07-05T06:52:00;4.93;;;3.25;;
30743;SDS011;17486;46.738;7.622;2022-07-05T06:54:26;5.30;;;3.40;;
30743;SDS011;17486;46.738;7.622;2022-07-05T06:56:51;4.32;;;3.33;;
30743;SDS011;17486;46.738;7.622;2022-07-05T06:59:20;3.53;;;3.22;;
30743;SDS011;17486;46.738;7.622;2022-07-05T07:01:46;4.28;;;3.63;;
30743;SDS011;17486;46.738;7.622;2022-07-05T07:04:12;5.18;;;3.47;;
30743;SDS011;17486;46.738;7.622;2022-07-05T07:06:37;3.75;;;3.35;;
30743;SDS011;17486;46.738;7.622;2022-07-05T07:09:03;4.22;;;2.95;;
30743;SDS011;17486;46.738;7.622;2022-07-05T07:11:43;3.92;;;3.25;;
30743;SDS011;17486;46.738;7.622;2022-07-05T07:14:09;3.20;;;2.95;;
30743;SDS011;17486;46.738;7.622;2022-07-05T07:16:35;5.20;;;2.95;;
30743;SDS011;17486;46.738;7.622;2022-07-05T07:19:00;3.63;;;3.22;;
30743;SDS011;17486;46.738;7.622;2022-07-05T07:21:26;3.25;;;2.88;;
30743;SDS011;17486;46.738;7.622;2022-07-05T07:23:51;6.05;;;3.42;;
30743;SDS011;17486;46.738;7.622;2022-07-05T07:26:17;5.13;;;2.80;;
30743;SDS011;17486;46.738;7.622;2022-07-05T07:28:42;3.70;;;3.08;;
30743;SDS011;17486;46.738;7.622;2022-07-05T07:31:07;3.80;;;3.15;;
30743;SDS011;17486;46.738;7.622;2022-07-05T07:33:33;4.03;;;3.17;;
30743;SDS011;17486;46.738;7.622;2022-07-05T07:35:59;5.75;;;3.08;;
30743;SDS011;17486;46.738;7.622;2022-07-05T07:38:24;3.38;;;3.08;;
30743;SDS011;17486;46.738;7.622;2022-07-05T07:40:51;3.63;;;3.03;;
30743;SDS011;17486;46.738;7.622;2022-07-05T07:43:17;4.15;;;2.90;;
30743;SDS011;17486;46.738;7.622;2022-07-05T07:45:42;3.60;;;2.65;;
30743;SDS011;17486;46.738;7.622;2022-07-05T07:48:08;3.60;;;3.30;;
30743;SDS011;17486;46.738;7.622;2022-07-05T07:50:34;5.40;;;2.90;;
30743;SDS011;17486;46.738;7.622;2022-07-05T07:52:59;3.72;;;2.90;;
30743;SDS011;17486;46.738;7.622;2022-07-05T07:55:25;4.00;;;2.72;;
30743;SDS011;17486;46.738;7.622;2022-07-05T07:57:50;3.63;;;2.95;;
30743;SDS011;17486;46.738;7.622;2022-07-05T08:00:16;4.13;;;2.85;;
30743;SDS011;17486;46.738;7.622;2022-07-05T08:02:41;3.28;;;2.85;;
30743;SDS011;17486;46.738;7.622;2022-07-05T08:05:07;3.78;;;2.85;;
30743;SDS011;17486;46.738;7.622;2022-07-05T08:07:34;4.45;;;3.00;;
30743;SDS011;17486;46.738;7.622;2022-07-05T08:10:03;4.68;;;2.63;;
30743;SDS011;17486;46.738;7.622;2022-07-05T08:12:30;2.60;;;2.40;;
30743;SDS011;17486;46.738;7.622;2022-07-05T08:14:55;4.32;;;3.10;;
30743;SDS011;17486;46.738;7.622;2022-07-05T08:17:20;2.42;;;2.20;;
30743;SDS011;17486;46.738;7.622;2022-07-05T08:19:46;4.38;;;2.28;;
30743;SDS011;17486;46.738;7.622;2022-07-05T08:22:31;3.25;;;2.10;;
30743;SDS011;17486;46.738;7.622;2022-07-05T08:24:56;3.63;;;2.33;;
30743;SDS011;17486;46.738;7.622;2022-07-05T08:27:22;3.85;;;2.22;;
30743;SDS011;17486;46.738;7.622;2022-07-05T08:29:48;2.38;;;2.17;;
30743;SDS011;17486;46.738;7.622;2022-07-05T08:32:14;3.22;;;2.20;;
30743;SDS011;17486;46.738;7.622;2022-07-05T08:34:40;3.72;;;2.22;;
30743;SDS011;17486;46.738;7.622;2022-07-05T08:37:07;2.42;;;2.03;;
30743;SDS011;17486;46.738;7.622;2022-07-05T08:39:32;2.28;;;2.00;;
30743;SDS011;17486;46.738;7.622;2022-07-05T08:41:58;2.20;;;1.95;;
30743;SDS011;17486;46.738;7.622;2022-07-05T08:44:24;2.20;;;2.00;;
30743;SDS011;17486;46.738;7.622;2022-07-05T08:46:53;3.15;;;1.88;;
30743;SDS011;17486;46.738;7.622;2022-07-05T08:49:25;2.10;;;2.00;;
30743;SDS011;17486;46.738;7.622;2022-07-05T08:51:51;4.25;;;2.10;;
30743;SDS011;17486;46.738;7.622;2022-07-05T08:54:19;2.47;;;2.28;;
30743;SDS011;17486;46.738;7.622;2022-07-05T08:56:44;4.07;;;2.60;;
30743;SDS011;17486;46.738;7.622;2022-07-05T08:59:10;2.63;;;2.20;;
30743;SDS011;17486;46.738;7.622;2022-07-05T09:01:35;3.17;;;2.33;;
30743;SDS011;17486;46.738;7.622;2022-07-05T09:04:07;3.45;;;2.20;;
30743;SDS011;17486;46.738;7.622;2022-07-05T09:06:35;3.80;;;2.40;;
30743;SDS011;17486;46.738;7.622;2022-07-05T09:09:04;3.88;;;2.17;;
30743;SDS011;17486;46.738;7.622;2022-07-05T09:11:40;4.95;;;1.83;;
30743;SDS011;17486;46.738;7.622;2022-07-05T09:14:07;3.83;;;2.22;;
30743;SDS011;17486;46.738;7.622;2022-07-05T09:16:44;4.13;;;2.33;;
30743;SDS011;17486;46.738;7.622;2022-07-05T09:19:10;6.93;;;2.38;;
30743;SDS011;17486;46.738;7.622;2022-07-05T09:21:35;3.20;;;2.10;;
30743;SDS011;17486;46.738;7.622;2022-07-05T09:24:02;4.10;;;2.30;;
30743;SDS011;17486;46.738;7.622;2022-07-05T09:26:33;2.67;;;2.10;;
30743;SDS011;17486;46.738;7.622;2022-07-05T09:28:59;2.08;;;1.80;;
30743;SDS011;17486;46.738;7.622;2022-07-05T09:33:53;2.50;;;2.30;;
30743;SDS011;17486;46.738;7.622;2022-07-05T09:36:18;2.75;;;2.10;;
30743;SDS011;17486;46.738;7.622;2022-07-05T09:38:49;2.50;;;2.05;;
30743;SDS011;17486;46.738;7.622;2022-07-05T09:41:15;2.60;;;1.93;;
30743;SDS011;17486;46.738;7.622;2022-07-05T09:43:40;2.00;;;1.83;;
30743;SDS011;17486;46.738;7.622;2022-07-05T09:46:06;2.60;;;1.92;;
30743;SDS011;17486;46.738;7.622;2022-07-05T09:48:32;2.45;;;1.85;;
30743;SDS011;17486;46.738;7.622;2022-07-05T09:51:09;3.58;;;1.88;;
30743;SDS011;17486;46.738;7.622;2022-07-05T09:53:47;3.00;;;2.03;;
30743;SDS011;17486;46.738;7.622;2022-07-05T09:56:14;5.25;;;2.20;;
30743;SDS011;17486;46.738;7.622;2022-07-05T09:58:40;3.05;;;1.92;;
30743;SDS011;17486;46.738;7.622;2022-07-05T10:01:25;3.28;;;1.90;;
30743;SDS011;17486;46.738;7.622;2022-07-05T10:03:55;6.30;;;2.15;;
30743;SDS011;17486;46.738;7.622;2022-07-05T10:06:27;2.38;;;1.80;;
30743;SDS011;17486;46.738;7.622;2022-07-05T10:08:56;3.00;;;1.75;;
30743;SDS011;17486;46.738;7.622;2022-07-05T10:11:22;4.90;;;2.00;;
30743;SDS011;17486;46.738;7.622;2022-07-05T10:13:54;3.35;;;1.95;;
30743;SDS011;17486;46.738;7.622;2022-07-05T10:16:21;4.63;;;1.98;;
30743;SDS011;17486;46.738;7.622;2022-07-05T10:18:50;2.47;;;1.52;;
30743;SDS011;17486;46.738;7.622;2022-07-05T10:21:17;2.08;;;1.63;;
30743;SDS011;17486;46.738;7.622;2022-07-05T10:23:50;4.38;;;2.20;;
30743;SDS011;17486;46.738;7.622;2022-07-05T10:26:18;2.10;;;1.58;;
30743;SDS011;17486;46.738;7.622;2022-07-05T10:28:46;3.00;;;1.90;;
30743;SDS011;17486;46.738;7.622;2022-07-05T10:31:13;2.53;;;2.00;;
30743;SDS011;17486;46.738;7.622;2022-07-05T10:33:40;5.03;;;1.90;;
30743;SDS011;17486;46.738;7.622;2022-07-05T10:36:05;4.60;;;1.85;;
30743;SDS011;17486;46.738;7.622;2022-07-05T10:38:44;2.75;;;1.90;;
30743;SDS011;17486;46.738;7.622;2022-07-05T10:41:13;2.05;;;1.60;;
30743;SDS011;17486;46.738;7.622;2022-07-05T10:43:42;2.33;;;1.75;;
30743;SDS011;17486;46.738;7.622;2022-07-05T10:46:07;2.03;;;1.65;;
30743;SDS011;17486;46.738;7.622;2022-07-05T10:48:33;2.40;;;1.52;;
30743;SDS011;17486;46.738;7.622;2022-07-05T10:58:36;3.35;;;2.00;;
30743;SDS011;17486;46.738;7.622;2022-07-05T11:06:31;3.38;;;2.10;;
30743;SDS011;17486;46.738;7.622;2022-07-05T11:14:19;2.10;;;1.85;;
30743;SDS011;17486;46.738;7.622;2022-07-05T11:19:34;2.65;;;1.65;;
30743;SDS011;17486;46.738;7.622;2022-07-05T11:22:25;4.13;;;2.10;;
30743;SDS011;17486;46.738;7.622;2022-07-05T11:24:50;3.90;;;1.75;;
30743;SDS011;17486;46.738;7.622;2022-07-05T11:27:16;4.00;;;1.98;;
30743;SDS011;17486;46.738;7.622;2022-07-05T11:29:52;4.55;;;2.03;;
30743;SDS011;17486;46.738;7.622;2022-07-05T11:32:22;2.70;;;1.80;;
30743;SDS011;17486;46.738;7.622;2022-07-05T11:35:15;3.08;;;1.80;;
30743;SDS011;17486;46.738;7.622;2022-07-05T11:38:24;1.70;;;1.60;;
30743;SDS011;17486;46.738;7.622;2022-07-05T11:40:33;1.90;;;1.55;;
30743;SDS011;17486;46.738;7.622;2022-07-05T11:43:00;3.83;;;1.90;;
30743;SDS011;17486;46.738;7.622;2022-07-05T11:45:27;3.08;;;1.70;;
30743;SDS011;17486;46.738;7.622;2022-07-05T11:47:53;1.73;;;1.63;;
30743;SDS011;17486;46.738;7.622;2022-07-05T11:50:27;3.15;;;1.70;;
30743;SDS011;17486;46.738;7.622;2022-07-05T11:52:54;1.80;;;1.60;;
30743;SDS011;17486;46.738;7.622;2022-07-05T11:55:20;2.83;;;1.58;;
30743;SDS011;17486;46.738;7.622;2022-07-05T11:57:50;4.35;;;1.77;;
30743;SDS011;17486;46.738;7.622;2022-07-05T12:02:58;2.50;;;1.52;;
30743;SDS011;17486;46.738;7.622;2022-07-05T12:05:29;3.85;;;1.77;;
30743;SDS011;17486;46.738;7.622;2022-07-05T12:07:55;2.13;;;1.83;;
30743;SDS011;17486;46.738;7.622;2022-07-05T12:10:21;2.28;;;2.00;;
30743;SDS011;17486;46.738;7.622;2022-07-05T12:13:08;2.03;;;1.70;;
30743;SDS011;17486;46.738;7.622;2022-07-05T12:15:34;1.95;;;1.67;;
30743;SDS011;17486;46.738;7.622;2022-07-05T12:18:01;4.07;;;1.70;;
30743;SDS011;17486;46.738;7.622;2022-07-05T12:20:32;2.17;;;1.42;;
30743;SDS011;17486;46.738;7.622;2022-07-05T12:22:59;3.00;;;2.13;;
30743;SDS011;17486;46.738;7.622;2022-07-05T12:25:26;2.95;;;1.95;;
30743;SDS011;17486;46.738;7.622;2022-07-05T12:27:52;2.38;;;1.70;;
30743;SDS011;17486;46.738;7.622;2022-07-05T12:30:19;2.05;;;1.50;;
30743;SDS011;17486;46.738;7.622;2022-07-05T12:32:55;2.88;;;1.63;;
30743;SDS011;17486;46.738;7.622;2022-07-05T12:35:41;2.45;;;1.67;;
30743;SDS011;17486;46.738;7.622;2022-07-05T12:40:43;1.50;;;1.40;;
30743;SDS011;17486;46.738;7.622;2022-07-05T12:43:27;2.15;;;1.75;;
30743;SDS011;17486;46.738;7.622;2022-07-05T12:48:31;2.35;;;1.92;;
30743;SDS011;17486;46.738;7.622;2022-07-05T12:51:04;2.88;;;1.48;;
30743;SDS011;17486;46.738;7.622;2022-07-05T12:53:30;2.08;;;1.60;;
30743;SDS011;17486;46.738;7.622;2022-07-05T12:56:14;1.55;;;1.42;;
30743;SDS011;17486;46.738;7.622;2022-07-05T13:09:05;1.60;;;1.50;;
30743;SDS011;17486;46.738;7.622;2022-07-05T13:11:30;1.85;;;1.52;;
30743;SDS011;17486;46.738;7.622;2022-07-05T13:13:56;4.95;;;2.00;;
30743;SDS011;17486;46.738;7.622;2022-07-05T13:16:22;3.00;;;1.80;;
30743;SDS011;17486;46.738;7.622;2022-07-05T13:18:47;1.88;;;1.60;;
30743;SDS011;17486;46.738;7.622;2022-07-05T13:21:12;3.30;;;1.92;;
30743;SDS011;17486;46.738;7.622;2022-07-05T13:23:38;1.85;;;1.60;;
30743;SDS011;17486;46.738;7.622;2022-07-05T13:26:03;2.08;;;1.58;;
30743;SDS011;17486;46.738;7.622;2022-07-05T13:28:29;1.63;;;1.52;;
30743;SDS011;17486;46.738;7.622;2022-07-05T13:30:54;1.80;;;1.50;;
30743;SDS011;17486;46.738;7.622;2022-07-05T13:33:19;2.47;;;1.75;;
30743;SDS011;17486;46.738;7.622;2022-07-05T13:35:45;2.25;;;1.70;;
30743;SDS011;17486;46.738;7.622;2022-07-05T13:38:11;2.25;;;1.70;;
30743;SDS011;17486;46.738;7.622;2022-07-05T13:40:36;1.85;;;1.63;;
30743;SDS011;17486;46.738;7.622;2022-07-05T13:43:02;2.45;;;1.70;;
30743;SDS011;17486;46.738;7.622;2022-07-05T13:45:27;2.03;;;1.58;;
30743;SDS011;17486;46.738;7.622;2022-07-05T13:47:52;1.58;;;1.48;;
30743;SDS011;17486;46.738;7.622;2022-07-05T13:50:18;2.78;;;1.55;;
30743;SDS011;17486;46.738;7.622;2022-07-05T13:55:25;2.10;;;1.48;;
30743;SDS011;17486;46.738;7.622;2022-07-05T13:57:51;1.55;;;1.45;;
30743;SDS011;17486;46.738;7.622;2022-07-05T14:00:16;2.83;;;1.48;;
30743;SDS011;17486;46.738;7.622;2022-07-05T14:02:42;3.47;;;1.90;;
30743;SDS011;17486;46.738;7.622;2022-07-05T14:05:09;2.70;;;1.30;;
30743;SDS011;17486;46.738;7.622;2022-07-05T14:07:35;1.55;;;1.45;;
30743;SDS011;17486;46.738;7.622;2022-07-05T14:10:01;2.70;;;1.73;;
30743;SDS011;17486;46.738;7.622;2022-07-05T14:12:27;1.90;;;1.40;;
30743;SDS011;17486;46.738;7.622;2022-07-05T14:14:52;1.83;;;1.40;;
30743;SDS011;17486;46.738;7.622;2022-07-05T14:17:18;4.40;;;1.45;;
30743;SDS011;17486;46.738;7.622;2022-07-05T14:19:43;2.97;;;1.67;;
30743;SDS011;17486;46.738;7.622;2022-07-05T14:22:08;1.52;;;1.42;;
30743;SDS011;17486;46.738;7.622;2022-07-05T14:24:34;6.00;;;1.95;;
30743;SDS011;17486;46.738;7.622;2022-07-05T14:26:59;2.28;;;1.63;;
30743;SDS011;17486;46.738;7.622;2022-07-05T14:29:25;2.28;;;1.70;;
30743;SDS011;17486;46.738;7.622;2022-07-05T14:31:51;1.63;;;1.40;;
30743;SDS011;17486;46.738;7.622;2022-07-05T14:34:16;2.47;;;1.80;;
30743;SDS011;17486;46.738;7.622;2022-07-05T14:36:41;5.35;;;2.25;;
30743;SDS011;17486;46.738;7.622;2022-07-05T14:39:07;1.98;;;1.65;;
30743;SDS011;17486;46.738;7.622;2022-07-05T14:41:32;3.75;;;1.88;;
30743;SDS011;17486;46.738;7.622;2022-07-05T14:43:57;1.50;;;1.40;;
30743;SDS011;17486;46.738;7.622;2022-07-05T14:46:23;2.03;;;1.60;;
30743;SDS011;17486;46.738;7.622;2022-07-05T14:48:48;3.55;;;1.50;;
30743;SDS011;17486;46.738;7.622;2022-07-05T14:51:14;3.30;;;1.63;;
30743;SDS011;17486;46.738;7.622;2022-07-05T14:53:39;3.00;;;1.63;;
30743;SDS011;17486;46.738;7.622;2022-07-05T14:56:10;1.90;;;1.40;;
30743;SDS011;17486;46.738;7.622;2022-07-05T14:58:35;3.75;;;1.40;;
30743;SDS011;17486;46.738;7.622;2022-07-05T15:01:01;2.15;;;1.45;;
30743;SDS011;17486;46.738;7.622;2022-07-05T15:03:26;2.67;;;1.48;;
30743;SDS011;17486;46.738;7.622;2022-07-05T15:05:52;1.95;;;1.38;;
30743;SDS011;17486;46.738;7.622;2022-07-05T15:08:18;1.92;;;1.50;;
30743;SDS011;17486;46.738;7.622;2022-07-05T15:10:47;1.70;;;1.30;;
30743;SDS011;17486;46.738;7.622;2022-07-05T15:13:13;1.98;;;1.35;;
30743;SDS011;17486;46.738;7.622;2022-07-05T15:15:39;1.70;;;1.60;;
30743;SDS011;17486;46.738;7.622;2022-07-05T15:18:05;2.90;;;1.27;;
30743;SDS011;17486;46.738;7.622;2022-07-05T15:20:30;1.95;;;1.50;;
30743;SDS011;17486;46.738;7.622;2022-07-05T15:22:56;2.85;;;1.65;;
30743;SDS011;17486;46.738;7.622;2022-07-05T15:25:22;3.10;;;1.48;;
30743;SDS011;17486;46.738;7.622;2022-07-05T15:27:48;2.35;;;1.40;;
30743;SDS011;17486;46.738;7.622;2022-07-05T15:30:14;1.65;;;1.30;;
30743;SDS011;17486;46.738;7.622;2022-07-05T15:32:42;1.88;;;1.50;;